sensor_id;sensor_type;location;lat;lon;timestamp;temperature;humidity
680;DHT22;322;48.846;9.230;2023-03-24T00:00:28;12.80;77.90
680;DHT22;322;48.846;9.230;2023-03-24T00:02:55;12.70;81.20
680;DHT22;322;48.846;9.230;2023-03-24T00:05:26;12.50;80.90
680;DHT22;322;48.846;9.230;2023-03-24T00:07:56;12.60;83.60
680;DHT22;322;48.846;9.230;2023-03-24T00:10:25;12.50;85.30
680;DHT22;322;48.846;9.230;2023-03-24T00:12:55;12.40;84.20
680;DHT22;322;48.846;9.230;2023-03-24T00:15:23;12.40;83.60
680;DHT22;322;48.846;9.230;2023-03-24T00:17:50;12.50;83.20
680;DHT22;322;48.846;9.230;2023-03-24T00:20:19;12.50;82.00
680;DHT22;322;48.846;9.230;2023-03-24T00:22:48;12.40;82.90
680;DHT22;322;48.846;9.230;2023-03-24T00:25:18;12.40;84.00
680;DHT22;322;48.846;9.230;2023-03-24T00:27:46;12.50;79.90
680;DHT22;322;48.846;9.230;2023-03-24T00:30:15;12.40;81.00
680;DHT22;322;48.846;9.230;2023-03-24T00:32:43;12.50;79.70
680;DHT22;322;48.846;9.230;2023-03-24T00:35:12;12.40;80.10
680;DHT22;322;48.846;9.230;2023-03-24T00:37:41;12.40;82.10
680;DHT22;322;48.846;9.230;2023-03-24T00:40:11;12.30;82.90
680;DHT22;322;48.846;9.230;2023-03-24T00:42:41;12.30;83.70
680;DHT22;322;48.846;9.230;2023-03-24T00:45:11;12.40;80.50
680;DHT22;322;48.846;9.230;2023-03-24T00:47:38;12.40;82.70
680;DHT22;322;48.846;9.230;2023-03-24T00:50:08;12.30;84.10
680;DHT22;322;48.846;9.230;2023-03-24T00:52:37;12.20;85.00
680;DHT22;322;48.846;9.230;2023-03-24T00:55:10;12.20;81.20
680;DHT22;322;48.846;9.230;2023-03-24T00:57:40;12.30;81.40
680;DHT22;322;48.846;9.230;2023-03-24T01:00:16;12.40;80.60
680;DHT22;322;48.846;9.230;2023-03-24T01:02:44;12.50;79.30
680;DHT22;322;48.846;9.230;2023-03-24T01:05:12;12.60;79.60
680;DHT22;322;48.846;9.230;2023-03-24T01:07:42;12.60;78.10
680;DHT22;322;48.846;9.230;2023-03-24T01:10:12;12.70;77.60
680;DHT22;322;48.846;9.230;2023-03-24T01:12:40;12.70;77.80
680;DHT22;322;48.846;9.230;2023-03-24T01:15:11;12.80;77.70
680;DHT22;322;48.846;9.230;2023-03-24T01:17:39;12.70;76.50
680;DHT22;322;48.846;9.230;2023-03-24T01:20:07;12.90;76.90
680;DHT22;322;48.846;9.230;2023-03-24T01:22:37;13.00;76.60
680;DHT22;322;48.846;9.230;2023-03-24T01:25:05;13.00;76.00
680;DHT22;322;48.846;9.230;2023-03-24T01:27:34;13.10;74.60
680;DHT22;322;48.846;9.230;2023-03-24T01:30:04;13.00;75.80
680;DHT22;322;48.846;9.230;2023-03-24T01:32:31;13.10;74.20
680;DHT22;322;48.846;9.230;2023-03-24T01:34:58;13.10;74.20
680;DHT22;322;48.846;9.230;2023-03-24T01:37:25;13.20;74.20
680;DHT22;322;48.846;9.230;2023-03-24T01:39:52;13.10;74.10
680;DHT22;322;48.846;9.230;2023-03-24T01:42:21;13.10;73.00
680;DHT22;322;48.846;9.230;2023-03-24T01:44:49;13.10;73.40
680;DHT22;322;48.846;9.230;2023-03-24T01:47:18;13.20;72.70
680;DHT22;322;48.846;9.230;2023-03-24T01:49:48;13.30;71.90
680;DHT22;322;48.846;9.230;2023-03-24T01:52:20;13.30;72.40
680;DHT22;322;48.846;9.230;2023-03-24T01:54:50;13.30;73.40
680;DHT22;322;48.846;9.230;2023-03-24T01:57:22;13.20;74.00
680;DHT22;322;48.846;9.230;2023-03-24T01:59:53;13.10;75.20
680;DHT22;322;48.846;9.230;2023-03-24T02:02:22;13.00;75.50
680;DHT22;322;48.846;9.230;2023-03-24T02:04:53;12.90;74.50
680;DHT22;322;48.846;9.230;2023-03-24T02:07:28;12.90;73.80
680;DHT22;322;48.846;9.230;2023-03-24T02:09:57;13.10;73.50
680;DHT22;322;48.846;9.230;2023-03-24T02:12:24;13.10;73.70
680;DHT22;322;48.846;9.230;2023-03-24T02:14:52;13.00;76.00
680;DHT22;322;48.846;9.230;2023-03-24T02:17:30;12.90;76.90
680;DHT22;322;48.846;9.230;2023-03-24T02:23:40;13.00;74.60
680;DHT22;322;48.846;9.230;2023-03-24T02:26:41;13.00;75.50
680;DHT22;322;48.846;9.230;2023-03-24T02:32:47;13.20;71.40
680;DHT22;322;48.846;9.230;2023-03-24T02:41:27;13.30;71.50
680;DHT22;322;48.846;9.230;2023-03-24T02:44:02;13.40;70.10
680;DHT22;322;48.846;9.230;2023-03-24T02:46:34;13.30;71.20
680;DHT22;322;48.846;9.230;2023-03-24T02:49:20;13.30;70.60
680;DHT22;322;48.846;9.230;2023-03-24T02:51:52;13.30;71.30
680;DHT22;322;48.846;9.230;2023-03-24T02:54:28;13.20;71.60
680;DHT22;322;48.846;9.230;2023-03-24T02:57:03;13.30;71.50
680;DHT22;322;48.846;9.230;2023-03-24T02:59:35;13.40;71.90
680;DHT22;322;48.846;9.230;2023-03-24T03:02:08;13.40;69.10
680;DHT22;322;48.846;9.230;2023-03-24T03:04:41;13.50;69.10
680;DHT22;322;48.846;9.230;2023-03-24T03:07:11;13.60;68.20
680;DHT22;322;48.846;9.230;2023-03-24T03:09:46;13.70;67.10
680;DHT22;322;48.846;9.230;2023-03-24T03:12:18;13.80;67.10
680;DHT22;322;48.846;9.230;2023-03-24T03:14:49;13.80;67.40
680;DHT22;322;48.846;9.230;2023-03-24T03:17:20;13.80;67.90
680;DHT22;322;48.846;9.230;2023-03-24T03:19:51;13.90;67.40
680;DHT22;322;48.846;9.230;2023-03-24T03:22:24;13.90;66.00
680;DHT22;322;48.846;9.230;2023-03-24T03:24:54;14.00;65.60
680;DHT22;322;48.846;9.230;2023-03-24T03:27:28;14.00;66.00
680;DHT22;322;48.846;9.230;2023-03-24T03:29:58;14.00;64.00
680;DHT22;322;48.846;9.230;2023-03-24T03:32:32;14.00;66.60
680;DHT22;322;48.846;9.230;2023-03-24T03:35:04;14.00;64.50
680;DHT22;322;48.846;9.230;2023-03-24T03:37:35;14.00;65.70
680;DHT22;322;48.846;9.230;2023-03-24T03:40:10;13.90;65.40
680;DHT22;322;48.846;9.230;2023-03-24T03:42:39;13.90;66.20
680;DHT22;322;48.846;9.230;2023-03-24T03:45:08;14.00;65.70
680;DHT22;322;48.846;9.230;2023-03-24T03:47:35;14.10;63.60
680;DHT22;322;48.846;9.230;2023-03-24T03:50:03;14.20;64.00
680;DHT22;322;48.846;9.230;2023-03-24T03:52:30;14.20;64.10
680;DHT22;322;48.846;9.230;2023-03-24T03:54:58;14.20;64.20
680;DHT22;322;48.846;9.230;2023-03-24T03:57:25;14.20;65.70
680;DHT22;322;48.846;9.230;2023-03-24T03:59:54;14.20;64.40
680;DHT22;322;48.846;9.230;2023-03-24T04:02:29;14.10;63.50
680;DHT22;322;48.846;9.230;2023-03-24T04:05:15;14.20;63.50
680;DHT22;322;48.846;9.230;2023-03-24T04:11:16;14.40;62.40
680;DHT22;322;48.846;9.230;2023-03-24T04:13:55;14.50;61.70
680;DHT22;322;48.846;9.230;2023-03-24T04:16:37;14.40;63.80
680;DHT22;322;48.846;9.230;2023-03-24T04:19:13;14.30;62.90
680;DHT22;322;48.846;9.230;2023-03-24T04:21:51;14.30;63.90
680;DHT22;322;48.846;9.230;2023-03-24T04:24:35;14.20;64.50
680;DHT22;322;48.846;9.230;2023-03-24T04:27:07;14.20;62.80
680;DHT22;322;48.846;9.230;2023-03-24T04:29:39;14.20;63.70
680;DHT22;322;48.846;9.230;2023-03-24T04:32:14;14.20;63.30
680;DHT22;322;48.846;9.230;2023-03-24T04:34:48;14.20;63.60
680;DHT22;322;48.846;9.230;2023-03-24T04:37:21;14.30;62.90
680;DHT22;322;48.846;9.230;2023-03-24T04:39:50;14.30;62.20
680;DHT22;322;48.846;9.230;2023-03-24T04:42:25;14.40;61.80
680;DHT22;322;48.846;9.230;2023-03-24T04:44:54;14.50;60.60
680;DHT22;322;48.846;9.230;2023-03-24T04:47:25;14.60;59.70
680;DHT22;322;48.846;9.230;2023-03-24T04:49:59;14.60;59.50
680;DHT22;322;48.846;9.230;2023-03-24T04:52:26;14.70;59.90
680;DHT22;322;48.846;9.230;2023-03-24T04:54:53;14.70;59.50
680;DHT22;322;48.846;9.230;2023-03-24T04:57:20;14.70;59.30
680;DHT22;322;48.846;9.230;2023-03-24T04:59:47;14.80;59.40
680;DHT22;322;48.846;9.230;2023-03-24T05:02:14;14.80;59.10
680;DHT22;322;48.846;9.230;2023-03-24T05:04:42;14.70;60.30
680;DHT22;322;48.846;9.230;2023-03-24T05:07:09;14.70;60.10
680;DHT22;322;48.846;9.230;2023-03-24T05:09:36;14.60;59.70
680;DHT22;322;48.846;9.230;2023-03-24T05:12:03;14.70;60.30
680;DHT22;322;48.846;9.230;2023-03-24T05:14:29;14.70;60.20
680;DHT22;322;48.846;9.230;2023-03-24T05:16:56;14.70;59.80
680;DHT22;322;48.846;9.230;2023-03-24T05:19:23;14.80;59.90
680;DHT22;322;48.846;9.230;2023-03-24T05:21:51;14.90;59.90
680;DHT22;322;48.846;9.230;2023-03-24T05:24:18;15.00;59.80
680;DHT22;322;48.846;9.230;2023-03-24T05:26:45;15.20;60.70
680;DHT22;322;48.846;9.230;2023-03-24T05:29:11;15.20;63.00
680;DHT22;322;48.846;9.230;2023-03-24T05:31:38;14.90;65.60
680;DHT22;322;48.846;9.230;2023-03-24T05:34:05;14.60;68.60
680;DHT22;322;48.846;9.230;2023-03-24T05:36:32;14.30;70.90
680;DHT22;322;48.846;9.230;2023-03-24T05:39:00;14.10;72.00
680;DHT22;322;48.846;9.230;2023-03-24T05:41:27;13.80;74.40
680;DHT22;322;48.846;9.230;2023-03-24T05:43:54;13.60;77.10
680;DHT22;322;48.846;9.230;2023-03-24T05:46:20;13.40;76.60
680;DHT22;322;48.846;9.230;2023-03-24T05:48:47;13.20;80.00
680;DHT22;322;48.846;9.230;2023-03-24T05:51:14;13.10;80.40
680;DHT22;322;48.846;9.230;2023-03-24T05:53:41;13.00;80.30
680;DHT22;322;48.846;9.230;2023-03-24T05:56:09;12.90;80.30
680;DHT22;322;48.846;9.230;2023-03-24T05:58:37;12.90;81.60
680;DHT22;322;48.846;9.230;2023-03-24T06:01:07;12.80;82.30
680;DHT22;322;48.846;9.230;2023-03-24T06:03:34;12.80;82.40
680;DHT22;322;48.846;9.230;2023-03-24T06:06:04;12.80;83.50
680;DHT22;322;48.846;9.230;2023-03-24T06:08:31;12.70;83.60
680;DHT22;322;48.846;9.230;2023-03-24T06:10:58;12.60;84.70
680;DHT22;322;48.846;9.230;2023-03-24T06:13:28;12.60;84.50
680;DHT22;322;48.846;9.230;2023-03-24T06:15:55;12.60;85.50
680;DHT22;322;48.846;9.230;2023-03-24T06:18:23;12.60;85.20
680;DHT22;322;48.846;9.230;2023-03-24T06:20:51;12.60;85.30
680;DHT22;322;48.846;9.230;2023-03-24T06:23:21;12.70;85.00
680;DHT22;322;48.846;9.230;2023-03-24T06:25:50;12.60;85.30
680;DHT22;322;48.846;9.230;2023-03-24T06:28:17;12.50;87.30
680;DHT22;322;48.846;9.230;2023-03-24T06:30:45;12.50;88.70
680;DHT22;322;48.846;9.230;2023-03-24T06:33:13;12.60;90.10
680;DHT22;322;48.846;9.230;2023-03-24T06:35:40;12.60;90.40
680;DHT22;322;48.846;9.230;2023-03-24T06:38:07;12.70;90.50
680;DHT22;322;48.846;9.230;2023-03-24T06:40:34;12.80;90.10
680;DHT22;322;48.846;9.230;2023-03-24T06:43:01;12.90;89.50
680;DHT22;322;48.846;9.230;2023-03-24T06:45:27;13.00;90.10
680;DHT22;322;48.846;9.230;2023-03-24T06:47:56;13.00;86.70
680;DHT22;322;48.846;9.230;2023-03-24T06:50:23;13.20;85.90
680;DHT22;322;48.846;9.230;2023-03-24T06:52:51;13.30;85.50
680;DHT22;322;48.846;9.230;2023-03-24T06:55:18;13.30;88.00
680;DHT22;322;48.846;9.230;2023-03-24T06:57:46;13.20;88.20
680;DHT22;322;48.846;9.230;2023-03-24T07:00:13;13.20;87.00
680;DHT22;322;48.846;9.230;2023-03-24T07:02:40;13.20;86.90
680;DHT22;322;48.846;9.230;2023-03-24T07:05:09;13.20;87.50
680;DHT22;322;48.846;9.230;2023-03-24T07:07:37;13.20;86.60
680;DHT22;322;48.846;9.230;2023-03-24T07:10:06;13.30;86.70
680;DHT22;322;48.846;9.230;2023-03-24T07:12:34;13.30;85.40
680;DHT22;322;48.846;9.230;2023-03-24T07:15:00;13.50;85.10
680;DHT22;322;48.846;9.230;2023-03-24T07:17:29;13.50;84.30
680;DHT22;322;48.846;9.230;2023-03-24T07:19:55;13.50;85.20
680;DHT22;322;48.846;9.230;2023-03-24T07:22:23;13.50;86.40
680;DHT22;322;48.846;9.230;2023-03-24T07:24:50;13.40;86.20
680;DHT22;322;48.846;9.230;2023-03-24T07:27:17;13.30;86.50
680;DHT22;322;48.846;9.230;2023-03-24T07:29:44;13.20;88.50
680;DHT22;322;48.846;9.230;2023-03-24T07:32:10;13.10;88.40
680;DHT22;322;48.846;9.230;2023-03-24T07:34:37;13.10;88.70
680;DHT22;322;48.846;9.230;2023-03-24T07:37:04;13.00;90.50
680;DHT22;322;48.846;9.230;2023-03-24T07:39:32;13.00;90.60
680;DHT22;322;48.846;9.230;2023-03-24T07:41:59;12.90;91.10
680;DHT22;322;48.846;9.230;2023-03-24T07:44:25;12.90;91.10
680;DHT22;322;48.846;9.230;2023-03-24T07:46:52;12.80;91.90
680;DHT22;322;48.846;9.230;2023-03-24T07:49:19;12.70;92.20
680;DHT22;322;48.846;9.230;2023-03-24T07:51:46;12.80;92.10
680;DHT22;322;48.846;9.230;2023-03-24T07:54:13;12.70;92.70
680;DHT22;322;48.846;9.230;2023-03-24T07:56:41;12.70;92.40
680;DHT22;322;48.846;9.230;2023-03-24T07:59:08;12.70;92.90
680;DHT22;322;48.846;9.230;2023-03-24T08:01:36;12.70;93.40
680;DHT22;322;48.846;9.230;2023-03-24T08:04:03;12.60;93.40
680;DHT22;322;48.846;9.230;2023-03-24T08:06:30;12.70;93.80
680;DHT22;322;48.846;9.230;2023-03-24T08:08:57;12.70;93.50
680;DHT22;322;48.846;9.230;2023-03-24T08:11:24;12.80;93.50
680;DHT22;322;48.846;9.230;2023-03-24T08:13:52;12.80;93.80
680;DHT22;322;48.846;9.230;2023-03-24T08:16:18;12.80;94.10
680;DHT22;322;48.846;9.230;2023-03-24T08:18:45;12.80;93.60
680;DHT22;322;48.846;9.230;2023-03-24T08:21:13;12.80;93.30
680;DHT22;322;48.846;9.230;2023-03-24T08:23:40;12.90;93.50
680;DHT22;322;48.846;9.230;2023-03-24T08:26:07;12.90;93.70
680;DHT22;322;48.846;9.230;2023-03-24T08:28:35;13.00;94.10
680;DHT22;322;48.846;9.230;2023-03-24T08:31:03;13.00;94.20
680;DHT22;322;48.846;9.230;2023-03-24T08:33:30;13.00;94.00
680;DHT22;322;48.846;9.230;2023-03-24T08:35:57;13.10;93.50
680;DHT22;322;48.846;9.230;2023-03-24T08:38:25;13.10;93.40
680;DHT22;322;48.846;9.230;2023-03-24T08:40:55;13.10;93.50
680;DHT22;322;48.846;9.230;2023-03-24T08:43:23;13.10;93.60
680;DHT22;322;48.846;9.230;2023-03-24T08:45:50;13.10;93.30
680;DHT22;322;48.846;9.230;2023-03-24T08:48:18;13.10;92.90
680;DHT22;322;48.846;9.230;2023-03-24T08:50:46;13.20;92.80
680;DHT22;322;48.846;9.230;2023-03-24T08:53:13;13.30;93.00
680;DHT22;322;48.846;9.230;2023-03-24T08:55:40;13.30;92.30
680;DHT22;322;48.846;9.230;2023-03-24T08:58:11;13.30;92.30
680;DHT22;322;48.846;9.230;2023-03-24T09:00:39;13.40;92.10
680;DHT22;322;48.846;9.230;2023-03-24T09:03:06;13.50;92.00
680;DHT22;322;48.846;9.230;2023-03-24T09:05:34;13.70;91.50
680;DHT22;322;48.846;9.230;2023-03-24T09:08:01;13.80;91.20
680;DHT22;322;48.846;9.230;2023-03-24T09:10:28;13.90;90.50
680;DHT22;322;48.846;9.230;2023-03-24T09:12:54;14.00;90.80
680;DHT22;322;48.846;9.230;2023-03-24T09:15:21;14.10;90.00
680;DHT22;322;48.846;9.230;2023-03-24T09:17:48;14.30;90.00
680;DHT22;322;48.846;9.230;2023-03-24T09:20:15;14.30;89.00
680;DHT22;322;48.846;9.230;2023-03-24T09:22:45;14.40;89.50
680;DHT22;322;48.846;9.230;2023-03-24T09:25:15;14.30;88.40
680;DHT22;322;48.846;9.230;2023-03-24T09:27:42;14.20;87.60
680;DHT22;322;48.846;9.230;2023-03-24T09:30:10;14.10;88.50
680;DHT22;322;48.846;9.230;2023-03-24T09:32:37;14.10;88.20
680;DHT22;322;48.846;9.230;2023-03-24T09:35:04;14.20;87.80
680;DHT22;322;48.846;9.230;2023-03-24T09:37:33;14.20;86.50
680;DHT22;322;48.846;9.230;2023-03-24T09:40:02;14.30;87.30
680;DHT22;322;48.846;9.230;2023-03-24T09:42:32;14.40;85.60
680;DHT22;322;48.846;9.230;2023-03-24T09:45:04;14.50;85.30
680;DHT22;322;48.846;9.230;2023-03-24T09:47:38;14.70;86.50
680;DHT22;322;48.846;9.230;2023-03-24T09:50:08;14.80;83.70
680;DHT22;322;48.846;9.230;2023-03-24T09:52:43;14.80;83.20
680;DHT22;322;48.846;9.230;2023-03-24T09:55:15;14.70;81.10
680;DHT22;322;48.846;9.230;2023-03-24T09:57:46;14.70;82.10
680;DHT22;322;48.846;9.230;2023-03-24T10:00:19;14.80;83.40
680;DHT22;322;48.846;9.230;2023-03-24T10:02:46;15.10;80.70
680;DHT22;322;48.846;9.230;2023-03-24T10:05:15;15.40;79.30
680;DHT22;322;48.846;9.230;2023-03-24T10:07:47;15.70;77.40
680;DHT22;322;48.846;9.230;2023-03-24T10:10:23;15.90;77.10
680;DHT22;322;48.846;9.230;2023-03-24T10:12:56;16.10;75.50
680;DHT22;322;48.846;9.230;2023-03-24T10:15:29;16.40;74.90
680;DHT22;322;48.846;9.230;2023-03-24T10:18:02;16.60;73.40
680;DHT22;322;48.846;9.230;2023-03-24T10:20:36;16.60;74.10
680;DHT22;322;48.846;9.230;2023-03-24T10:23:13;16.50;74.10
680;DHT22;322;48.846;9.230;2023-03-24T10:25:50;16.40;72.80
680;DHT22;322;48.846;9.230;2023-03-24T10:28:19;16.30;73.50
680;DHT22;322;48.846;9.230;2023-03-24T10:30:47;16.20;73.50
680;DHT22;322;48.846;9.230;2023-03-24T10:33:15;16.20;73.60
680;DHT22;322;48.846;9.230;2023-03-24T10:35:45;16.30;72.50
680;DHT22;322;48.846;9.230;2023-03-24T10:38:17;16.40;70.20
680;DHT22;322;48.846;9.230;2023-03-24T10:40:48;16.10;70.10
680;DHT22;322;48.846;9.230;2023-03-24T10:43:16;16.00;69.90
680;DHT22;322;48.846;9.230;2023-03-24T10:45:46;16.20;68.20
680;DHT22;322;48.846;9.230;2023-03-24T10:48:33;16.20;66.70
680;DHT22;322;48.846;9.230;2023-03-24T10:51:01;16.30;66.90
680;DHT22;322;48.846;9.230;2023-03-24T10:53:27;16.50;66.40
680;DHT22;322;48.846;9.230;2023-03-24T10:55:56;16.80;64.70
680;DHT22;322;48.846;9.230;2023-03-24T10:58:28;16.90;62.50
680;DHT22;322;48.846;9.230;2023-03-24T11:00:58;17.00;62.80
680;DHT22;322;48.846;9.230;2023-03-24T11:03:28;17.10;62.00
680;DHT22;322;48.846;9.230;2023-03-24T11:06:00;16.90;63.00
680;DHT22;322;48.846;9.230;2023-03-24T11:08:33;16.90;62.70
680;DHT22;322;48.846;9.230;2023-03-24T11:11:12;16.80;61.90
680;DHT22;322;48.846;9.230;2023-03-24T11:13:39;16.90;64.20
680;DHT22;322;48.846;9.230;2023-03-24T11:16:11;17.00;62.00
680;DHT22;322;48.846;9.230;2023-03-24T11:18:54;17.00;62.30
680;DHT22;322;48.846;9.230;2023-03-24T11:21:21;17.20;61.00
680;DHT22;322;48.846;9.230;2023-03-24T11:23:48;17.30;60.40
680;DHT22;322;48.846;9.230;2023-03-24T11:26:19;17.50;60.70
680;DHT22;322;48.846;9.230;2023-03-24T11:28:50;17.40;59.80
680;DHT22;322;48.846;9.230;2023-03-24T11:31:21;17.40;60.30
680;DHT22;322;48.846;9.230;2023-03-24T11:33:57;17.50;60.40
680;DHT22;322;48.846;9.230;2023-03-24T11:36:46;17.70;59.10
680;DHT22;322;48.846;9.230;2023-03-24T11:39:19;18.20;58.20
680;DHT22;322;48.846;9.230;2023-03-24T11:42:10;18.50;58.90
680;DHT22;322;48.846;9.230;2023-03-24T11:44:44;18.30;56.80
680;DHT22;322;48.846;9.230;2023-03-24T11:47:17;18.20;56.70
680;DHT22;322;48.846;9.230;2023-03-24T11:49:49;17.90;58.30
680;DHT22;322;48.846;9.230;2023-03-24T11:52:21;17.70;58.90
680;DHT22;322;48.846;9.230;2023-03-24T11:54:48;17.20;58.90
680;DHT22;322;48.846;9.230;2023-03-24T11:57:23;16.70;60.50
680;DHT22;322;48.846;9.230;2023-03-24T11:59:56;16.50;61.10
680;DHT22;322;48.846;9.230;2023-03-24T12:02:35;16.60;62.00
680;DHT22;322;48.846;9.230;2023-03-24T12:05:15;16.90;59.90
680;DHT22;322;48.846;9.230;2023-03-24T12:08:20;17.10;59.80
680;DHT22;322;48.846;9.230;2023-03-24T12:10:57;17.40;60.10
680;DHT22;322;48.846;9.230;2023-03-24T12:13:32;17.10;58.20
680;DHT22;322;48.846;9.230;2023-03-24T12:16:11;16.80;59.80
680;DHT22;322;48.846;9.230;2023-03-24T12:19:05;16.60;60.50
680;DHT22;322;48.846;9.230;2023-03-24T12:21:48;16.60;60.20
680;DHT22;322;48.846;9.230;2023-03-24T12:24:26;16.80;59.50
680;DHT22;322;48.846;9.230;2023-03-24T12:26:59;17.00;58.90
680;DHT22;322;48.846;9.230;2023-03-24T12:29:46;17.00;58.40
680;DHT22;322;48.846;9.230;2023-03-24T12:35:52;16.60;59.30
680;DHT22;322;48.846;9.230;2023-03-24T12:38:46;16.80;59.40
680;DHT22;322;48.846;9.230;2023-03-24T12:44:28;17.00;57.60
680;DHT22;322;48.846;9.230;2023-03-24T12:47:06;16.60;57.70
680;DHT22;322;48.846;9.230;2023-03-24T12:49:47;16.30;58.60
680;DHT22;322;48.846;9.230;2023-03-24T12:55:20;16.00;59.50
680;DHT22;322;48.846;9.230;2023-03-24T12:57:55;16.00;59.80
680;DHT22;322;48.846;9.230;2023-03-24T13:00:26;16.10;59.60
680;DHT22;322;48.846;9.230;2023-03-24T13:02:57;16.40;58.90
680;DHT22;322;48.846;9.230;2023-03-24T13:05:29;16.70;58.30
680;DHT22;322;48.846;9.230;2023-03-24T13:08:01;16.70;58.20
680;DHT22;322;48.846;9.230;2023-03-24T13:10:31;16.70;57.90
680;DHT22;322;48.846;9.230;2023-03-24T13:13:09;16.80;57.80
680;DHT22;322;48.846;9.230;2023-03-24T13:15:42;16.70;57.90
680;DHT22;322;48.846;9.230;2023-03-24T13:18:23;16.70;58.10
680;DHT22;322;48.846;9.230;2023-03-24T13:20:54;16.70;58.80
680;DHT22;322;48.846;9.230;2023-03-24T13:23:38;16.50;57.20
680;DHT22;322;48.846;9.230;2023-03-24T13:26:13;16.40;58.00
680;DHT22;322;48.846;9.230;2023-03-24T13:28:50;16.50;58.00
680;DHT22;322;48.846;9.230;2023-03-24T13:31:21;16.20;59.10
680;DHT22;322;48.846;9.230;2023-03-24T13:33:51;14.90;64.70
680;DHT22;322;48.846;9.230;2023-03-24T13:36:33;14.00;68.80
680;DHT22;322;48.846;9.230;2023-03-24T13:39:05;13.50;72.30
680;DHT22;322;48.846;9.230;2023-03-24T13:41:35;13.20;75.10
680;DHT22;322;48.846;9.230;2023-03-24T13:44:07;12.90;77.90
680;DHT22;322;48.846;9.230;2023-03-24T13:46:35;12.50;82.80
680;DHT22;322;48.846;9.230;2023-03-24T13:49:07;12.10;85.40
680;DHT22;322;48.846;9.230;2023-03-24T13:51:41;12.00;86.20
680;DHT22;322;48.846;9.230;2023-03-24T13:54:13;11.90;87.80
680;DHT22;322;48.846;9.230;2023-03-24T13:56:47;12.00;86.20
680;DHT22;322;48.846;9.230;2023-03-24T13:59:27;11.90;87.00
680;DHT22;322;48.846;9.230;2023-03-24T14:02:10;12.00;87.80
680;DHT22;322;48.846;9.230;2023-03-24T14:04:46;12.00;86.20
680;DHT22;322;48.846;9.230;2023-03-24T14:07:30;12.00;86.20
680;DHT22;322;48.846;9.230;2023-03-24T14:09:58;12.00;86.00
680;DHT22;322;48.846;9.230;2023-03-24T14:12:25;12.00;84.90
680;DHT22;322;48.846;9.230;2023-03-24T14:15:14;12.00;85.50
680;DHT22;322;48.846;9.230;2023-03-24T14:17:45;11.90;85.70
680;DHT22;322;48.846;9.230;2023-03-24T14:23:20;11.70;90.00
680;DHT22;322;48.846;9.230;2023-03-24T14:25:52;11.60;90.10
680;DHT22;322;48.846;9.230;2023-03-24T14:28:21;11.50;89.50
680;DHT22;322;48.846;9.230;2023-03-24T14:31:02;11.60;90.10
680;DHT22;322;48.846;9.230;2023-03-24T14:33:34;11.50;89.40
680;DHT22;322;48.846;9.230;2023-03-24T14:36:04;11.50;90.40
680;DHT22;322;48.846;9.230;2023-03-24T14:38:39;11.50;90.40
680;DHT22;322;48.846;9.230;2023-03-24T14:41:12;11.70;88.90
680;DHT22;322;48.846;9.230;2023-03-24T14:43:55;11.60;89.10
680;DHT22;322;48.846;9.230;2023-03-24T14:46:37;11.50;89.60
680;DHT22;322;48.846;9.230;2023-03-24T14:49:23;11.50;90.80
680;DHT22;322;48.846;9.230;2023-03-24T14:51:58;11.40;90.70
680;DHT22;322;48.846;9.230;2023-03-24T14:54:31;11.30;91.40
680;DHT22;322;48.846;9.230;2023-03-24T14:57:00;11.20;91.50
680;DHT22;322;48.846;9.230;2023-03-24T14:59:46;11.20;91.70
680;DHT22;322;48.846;9.230;2023-03-24T15:02:27;11.20;91.70
680;DHT22;322;48.846;9.230;2023-03-24T15:05:22;11.20;91.90
680;DHT22;322;48.846;9.230;2023-03-24T15:08:07;11.20;92.20
680;DHT22;322;48.846;9.230;2023-03-24T15:10:38;11.10;92.50
680;DHT22;322;48.846;9.230;2023-03-24T15:13:30;11.10;93.20
680;DHT22;322;48.846;9.230;2023-03-24T15:15:59;11.10;93.40
680;DHT22;322;48.846;9.230;2023-03-24T15:18:27;11.00;93.50
680;DHT22;322;48.846;9.230;2023-03-24T15:20:54;11.00;93.90
680;DHT22;322;48.846;9.230;2023-03-24T15:23:24;11.00;93.70
680;DHT22;322;48.846;9.230;2023-03-24T15:25:53;11.10;94.30
680;DHT22;322;48.846;9.230;2023-03-24T15:28:23;11.10;93.90
680;DHT22;322;48.846;9.230;2023-03-24T15:30:50;11.10;93.80
680;DHT22;322;48.846;9.230;2023-03-24T15:33:18;11.10;93.90
680;DHT22;322;48.846;9.230;2023-03-24T15:35:46;11.20;94.00
680;DHT22;322;48.846;9.230;2023-03-24T15:38:24;11.20;94.30
680;DHT22;322;48.846;9.230;2023-03-24T15:40:56;11.30;94.50
680;DHT22;322;48.846;9.230;2023-03-24T15:43:24;11.40;94.30
680;DHT22;322;48.846;9.230;2023-03-24T15:45:52;11.50;94.00
680;DHT22;322;48.846;9.230;2023-03-24T15:48:21;11.50;94.20
680;DHT22;322;48.846;9.230;2023-03-24T15:50:59;11.50;93.80
680;DHT22;322;48.846;9.230;2023-03-24T15:53:28;11.50;93.80
680;DHT22;322;48.846;9.230;2023-03-24T15:56:15;11.50;93.70
680;DHT22;322;48.846;9.230;2023-03-24T15:58:50;11.50;94.20
680;DHT22;322;48.846;9.230;2023-03-24T16:01:22;11.50;94.60
680;DHT22;322;48.846;9.230;2023-03-24T16:03:50;11.60;94.30
680;DHT22;322;48.846;9.230;2023-03-24T16:06:26;11.70;94.10
680;DHT22;322;48.846;9.230;2023-03-24T16:08:57;11.80;94.40
680;DHT22;322;48.846;9.230;2023-03-24T16:11:26;11.80;94.20
680;DHT22;322;48.846;9.230;2023-03-24T16:13:53;11.90;93.50
680;DHT22;322;48.846;9.230;2023-03-24T16:16:23;11.90;93.90
680;DHT22;322;48.846;9.230;2023-03-24T16:18:51;12.10;94.30
680;DHT22;322;48.846;9.230;2023-03-24T16:21:19;12.20;93.70
680;DHT22;322;48.846;9.230;2023-03-24T16:23:47;12.30;92.60
680;DHT22;322;48.846;9.230;2023-03-24T16:26:15;12.40;92.40
680;DHT22;322;48.846;9.230;2023-03-24T16:28:44;12.40;92.30
680;DHT22;322;48.846;9.230;2023-03-24T16:31:18;12.40;92.30
680;DHT22;322;48.846;9.230;2023-03-24T16:33:46;12.30;91.90
680;DHT22;322;48.846;9.230;2023-03-24T16:36:13;12.30;91.30
680;DHT22;322;48.846;9.230;2023-03-24T16:38:42;12.20;91.50
680;DHT22;322;48.846;9.230;2023-03-24T16:41:09;12.20;91.30
680;DHT22;322;48.846;9.230;2023-03-24T16:43:38;12.20;91.30
680;DHT22;322;48.846;9.230;2023-03-24T16:46:11;12.20;91.10
680;DHT22;322;48.846;9.230;2023-03-24T16:48:39;12.40;91.00
680;DHT22;322;48.846;9.230;2023-03-24T16:51:10;12.60;91.10
680;DHT22;322;48.846;9.230;2023-03-24T16:53:38;12.70;90.80
680;DHT22;322;48.846;9.230;2023-03-24T16:56:06;12.80;90.20
680;DHT22;322;48.846;9.230;2023-03-24T16:58:33;12.80;90.60
680;DHT22;322;48.846;9.230;2023-03-24T17:01:00;12.90;89.40
680;DHT22;322;48.846;9.230;2023-03-24T17:03:29;12.90;89.10
680;DHT22;322;48.846;9.230;2023-03-24T17:05:56;12.80;89.60
680;DHT22;322;48.846;9.230;2023-03-24T17:08:23;12.70;90.00
680;DHT22;322;48.846;9.230;2023-03-24T17:10:51;12.60;89.80
680;DHT22;322;48.846;9.230;2023-03-24T17:13:20;12.60;90.10
680;DHT22;322;48.846;9.230;2023-03-24T17:15:47;12.50;90.00
680;DHT22;322;48.846;9.230;2023-03-24T17:18:14;12.40;90.10
680;DHT22;322;48.846;9.230;2023-03-24T17:20:43;12.30;90.50
680;DHT22;322;48.846;9.230;2023-03-24T17:23:13;12.20;90.80
680;DHT22;322;48.846;9.230;2023-03-24T17:25:42;12.10;90.20
680;DHT22;322;48.846;9.230;2023-03-24T17:28:11;12.00;90.60